EBCI

Brussels South Charleroi Airport

Brussels, Belgium
METAR EBCI 131020Z 06012KT CAVOK 01/M02 Q1018 NOSIG
Observed Flight Rules
Dec-13 @ 10:20 UTC (30 minutes ago) Visual Flight Rules
Wind Visibility Clouds
60° at 12 knots 10,000+ meters
  • Clear skies
Temperatures Readings
Current 1°C / 34°F
Dewpoint -2°C / 28°F
Humidity 81%
Altimeter 30.06" Hg
Pressure 1018 hPa
Elevation 192
METAR EBCI 131020Z 06012KT CAVOK 01/M02 Q1018 NOSIG
Observed Flight Rules
Dec-13 @ 10:20 UTC
(30 minutes ago)
VFR
Wind Visibility
60° at 12 knots 10,000+ meters
Clouds
  • Clear skies
Temperature Dewpoint
1°C / 34°F -2°C / 28°F
Humidity Altimeter Pressure
81% 30.06" Hg 1018 hPa